Thunder radar more information blitzortung!


Radar de pluja more information rain snow radar


Visita la nostra xarxa de llocs de meteo:

Template documentation
and downloads

And another site



No particular awareness of the weather is required.    There are no Weather-warnings

Pagina Historial Weather Underground text

Diari Resum May 17, 2016 Unitats:  Mètric    Imperial   Tant
« Previous Dia
SegĂźent Dia »
Diari Setmana Mensual Anual Personalitzada
  Maxima: Minima: Media:
Temperatura: 21.0 °C 11.2 °C 17.3 °C
Punt de rosada: 11.8 °C 7.0 °C 9.8 °C
Humitat: 81 % 51 % 62 %
Wind Speed: 20.4 km/h 0.0 km/h 6.6 km/h
RĂ fegues de vent: 20.4 km/h - -
Vent:- - South
Pression baro: 1021.9 hPa 1016.8 hPa -
Precipitacions: 0.0 mm    
Historical Graphs
 
 
Dades de taula per May 17, 2016
Temps Temperatura Punt de rosada Pression baro Vent Wind Speed RĂ fegues de vent Humitat Rainfall Rate (Hourly)
00:03 15.1 °C 7.4 °C 1021.9 hPa ENE 2.3 km/h   60 % 0.0 mm
02:55 11.2 °C 7.1 °C 1020.9 hPa Calm   3.2 km/h 76 % 0.0 mm
03:05 11.3 °C 7.0 °C 1020.9 hPa WSW 1.6 km/h 3.2 km/h 75 % 0.0 mm
03:15 11.4 °C 7.3 °C 1021.9 hPa Calm   1.6 km/h 76 % 0.0 mm
03:25 11.7 °C 7.6 °C 1021.9 hPa Calm   1.6 km/h 76 % 0.0 mm
03:35 12.0 °C 7.7 °C 1021.9 hPa SSW 1.6 km/h 3.2 km/h 75 % 0.0 mm
03:45 12.2 °C 7.9 °C 1021.9 hPa SSW 1.6 km/h 3.2 km/h 75 % 0.0 mm
03:55 12.8 °C 8.5 °C 1020.9 hPa Calm   3.2 km/h 75 % 0.0 mm
04:05 13.5 °C 9.2 °C 1020.9 hPa Calm   1.6 km/h 75 % 0.0 mm
04:15 14.6 °C 10.2 °C 1021.9 hPa Calm   1.6 km/h 75 % 0.0 mm
04:25 15.4 °C 10.8 °C 1021.9 hPa NE 3.2 km/h 4.8 km/h 74 % 0.0 mm
04:35 16.1 °C 11.4 °C 1021.9 hPa ENE 3.2 km/h 6.4 km/h 74 % 0.0 mm
04:45 16.3 °C 11.4 °C 1021.9 hPa ENE 4.8 km/h 6.4 km/h 73 % 0.0 mm
04:55 16.7 °C 11.6 °C 1021.9 hPa NE 4.8 km/h 8.0 km/h 72 % 0.0 mm
05:05 17.0 °C 11.5 °C 1021.9 hPa NE 4.8 km/h 8.0 km/h 70 % 0.0 mm
05:15 17.3 °C 11.8 °C 1020.9 hPa NE 3.2 km/h 6.4 km/h 70 % 0.0 mm
05:25 17.8 °C 11.6 °C 1020.9 hPa ENE 3.2 km/h 8.0 km/h 67 % 0.0 mm
05:35 18.2 °C 11.5 °C 1020.9 hPa East 3.2 km/h 6.4 km/h 65 % 0.0 mm
05:45 18.4 °C 11.2 °C 1020.9 hPa East 1.6 km/h 4.8 km/h 63 % 0.0 mm
05:55 18.5 °C 11.3 °C 1020.9 hPa East 1.6 km/h 6.4 km/h 63 % 0.0 mm
06:05 18.9 °C 11.2 °C 1020.9 hPa ENE 4.8 km/h 9.7 km/h 61 % 0.0 mm
06:15 19.3 °C 11.1 °C 1020.9 hPa SSE 4.8 km/h 9.7 km/h 59 % 0.0 mm
06:25 19.3 °C 10.8 °C 1020.9 hPa South 1.6 km/h 6.4 km/h 58 % 0.0 mm
06:35 19.4 °C 10.4 °C 1020.9 hPa ESE 9.7 km/h 12.9 km/h 56 % 0.0 mm
11:42 19.8 °C 9.9 °C 1019.9 hPa ESE 9.3 km/h 9.3 km/h 53 % 0.0 mm
11:47 19.8 °C 10.2 °C 1019.9 hPa SSE 7.9 km/h 7.9 km/h 54 % 0.0 mm
11:52 19.8 °C 10.2 °C 1019.9 hPa South 11.4 km/h 11.4 km/h 54 % 0.0 mm
11:57 20.5 °C 10.9 °C 1019.9 hPa South 9.0 km/h 9.0 km/h 54 % 0.0 mm
12:02 21.0 °C 10.8 °C 1019.9 hPa SW 3.7 km/h 3.7 km/h 52 % 0.0 mm
12:07 20.0 °C 10.1 °C 1019.9 hPa ESE 9.3 km/h 9.3 km/h 53 % 0.0 mm
12:12 20.0 °C 10.1 °C 1019.9 hPa ENE 3.9 km/h 3.9 km/h 53 % 0.0 mm
12:17 19.7 °C 9.6 °C 1019.9 hPa ENE 9.3 km/h 9.3 km/h 52 % 0.0 mm
12:22 19.4 °C 9.6 °C 1019.9 hPa NNE 9.3 km/h 9.3 km/h 53 % 0.0 mm
12:27 19.4 °C 9.3 °C 1019.9 hPa ESE 9.0 km/h 9.0 km/h 52 % 0.0 mm
12:32 19.7 °C 9.8 °C 1019.9 hPa East 13.0 km/h 13.0 km/h 53 % 0.0 mm
12:37 19.9 °C 9.7 °C 1019.9 hPa ESE 11.1 km/h 11.1 km/h 52 % 0.0 mm
12:47 20.6 °C 10.4 °C 1019.9 hPa East 11.9 km/h 11.9 km/h 52 % 0.0 mm
12:52 20.0 °C 9.6 °C 1019.9 hPa ENE 9.3 km/h 9.3 km/h 51 % 0.0 mm
12:57 20.1 °C 9.9 °C 1019.9 hPa SSW 9.3 km/h 9.3 km/h 52 % 0.0 mm
13:02 20.4 °C 9.9 °C 1019.9 hPa ESE 11.1 km/h 11.1 km/h 51 % 0.0 mm
13:07 20.1 °C 9.7 °C 1019.9 hPa East 15.6 km/h 15.6 km/h 51 % 0.0 mm
13:12 19.5 °C 9.4 °C 1019.9 hPa East 14.8 km/h 14.8 km/h 52 % 0.0 mm
13:17 19.4 °C 9.3 °C 1019.9 hPa ENE 20.4 km/h 20.4 km/h 52 % 0.0 mm
13:22 19.6 °C 9.4 °C 1018.8 hPa East 14.0 km/h 14.0 km/h 52 % 0.0 mm
13:27 19.9 °C 9.7 °C 1018.8 hPa ENE 11.1 km/h 11.1 km/h 52 % 0.0 mm
13:32 20.0 °C 9.8 °C 1018.8 hPa SSW 11.4 km/h 11.4 km/h 52 % 0.0 mm
13:37 20.5 °C 10.3 °C 1019.9 hPa ESE 13.0 km/h 13.0 km/h 52 % 0.0 mm
13:42 20.8 °C 10.6 °C 1019.9 hPa NE 11.1 km/h 11.1 km/h 52 % 0.0 mm
13:47 20.8 °C 10.6 °C 1019.9 hPa East 9.5 km/h 9.5 km/h 52 % 0.0 mm
13:52 20.8 °C 10.6 °C 1019.9 hPa SSW 9.3 km/h 9.3 km/h 52 % 0.0 mm
13:57 20.7 °C 10.5 °C 1019.9 hPa SE 11.1 km/h 11.1 km/h 52 % 0.0 mm
14:02 20.3 °C 10.1 °C 1019.9 hPa ESE 9.7 km/h 10.8 km/h 52 % 0.0 mm
14:07 20.0 °C 9.8 °C 1019.9 hPa East 11.1 km/h 11.1 km/h 52 % 0.0 mm
14:13 20.0 °C 9.8 °C 1019.9 hPa NNE 9.3 km/h 9.3 km/h 52 % 0.0 mm
14:18 19.9 °C 10.1 °C 1019.9 hPa NNE 16.7 km/h 16.7 km/h 53 % 0.0 mm
14:28 19.4 °C 9.8 °C 1019.9 hPa ESE 13.0 km/h 13.0 km/h 54 % 0.0 mm
14:33 19.2 °C 9.9 °C 1019.9 hPa ESE 20.4 km/h 20.4 km/h 55 % 0.0 mm
14:38 19.2 °C 9.9 °C 1019.9 hPa ENE 18.5 km/h 18.5 km/h 55 % 0.0 mm
14:43 19.2 °C 10.2 °C 1019.9 hPa East 14.8 km/h 14.8 km/h 56 % 0.0 mm
14:48 19.2 °C 10.2 °C 1019.9 hPa SE 20.4 km/h 20.4 km/h 56 % 0.0 mm
14:53 19.1 °C 10.1 °C 1018.8 hPa ESE 14.8 km/h 14.8 km/h 56 % 0.0 mm
14:58 19.2 °C 10.4 °C 1018.8 hPa South 9.5 km/h 9.5 km/h 57 % 0.0 mm
15:03 19.2 °C 10.7 °C 1018.8 hPa East 13.0 km/h 13.0 km/h 58 % 0.0 mm
15:08 19.1 °C 10.7 °C 1018.8 hPa ENE 14.8 km/h 14.8 km/h 58 % 0.0 mm
15:13 19.2 °C 10.7 °C 1018.8 hPa WSW 7.4 km/h 7.4 km/h 58 % 0.0 mm
15:18 19.2 °C 11.0 °C 1018.8 hPa South 9.3 km/h 10.0 km/h 59 % 0.0 mm
15:23 19.1 °C 10.9 °C 1018.8 hPa South 10.0 km/h 10.0 km/h 59 % 0.0 mm
15:28 19.5 °C 11.3 °C 1018.8 hPa SSE 9.0 km/h 9.0 km/h 59 % 0.0 mm
15:33 19.3 °C 10.8 °C 1018.8 hPa WSW 5.6 km/h 5.6 km/h 58 % 0.0 mm
15:38 19.1 °C 10.7 °C 1018.8 hPa ESE 9.3 km/h 9.3 km/h 58 % 0.0 mm
15:43 19.2 °C 10.7 °C 1018.8 hPa WNW 3.7 km/h 3.7 km/h 58 % 0.0 mm
15:48 19.5 °C 11.0 °C 1018.8 hPa South 5.8 km/h 5.8 km/h 58 % 0.0 mm
15:53 19.4 °C 10.9 °C 1018.8 hPa SSE 10.0 km/h 10.0 km/h 58 % 0.0 mm
15:58 19.3 °C 10.8 °C 1018.8 hPa SSW 9.3 km/h 9.3 km/h 58 % 0.0 mm
16:03 19.4 °C 10.7 °C 1018.8 hPa South 13.0 km/h 13.0 km/h 57 % 0.0 mm
16:08 19.2 °C 10.4 °C 1018.8 hPa South 6.9 km/h 6.9 km/h 57 % 0.0 mm
16:13 19.4 °C 10.4 °C 1018.8 hPa SW 9.5 km/h 9.5 km/h 56 % 0.0 mm
16:18 19.4 °C 10.4 °C 1018.8 hPa WSW 5.6 km/h 5.6 km/h 56 % 0.0 mm
16:23 19.4 °C 10.1 °C 1018.8 hPa WSW 13.0 km/h 13.0 km/h 55 % 0.0 mm
16:28 20.0 °C 10.7 °C 1018.8 hPa SSW 7.4 km/h 7.4 km/h 55 % 0.0 mm
16:33 20.0 °C 10.1 °C 1018.8 hPa SSW 13.0 km/h 13.0 km/h 53 % 0.0 mm
16:38 19.7 °C 9.8 °C 1018.8 hPa West 9.3 km/h 9.3 km/h 53 % 0.0 mm
16:43 20.1 °C 10.5 °C 1018.8 hPa SSW 6.1 km/h 6.1 km/h 54 % 0.0 mm
16:48 20.1 °C 10.2 °C 1018.8 hPa West 15.6 km/h 15.6 km/h 53 % 0.0 mm
16:53 19.8 °C 9.9 °C 1017.8 hPa SSW 4.7 km/h 4.7 km/h 53 % 0.0 mm
16:58 20.0 °C 10.1 °C 1017.8 hPa SSW 1.9 km/h   53 % 0.0 mm
17:03 20.1 °C 10.2 °C 1017.8 hPa West 7.4 km/h 7.4 km/h 53 % 0.0 mm
17:08 20.1 °C 10.2 °C 1017.8 hPa SW 14.8 km/h 14.8 km/h 53 % 0.0 mm
17:13 19.8 °C 9.9 °C 1017.8 hPa South 11.1 km/h 11.1 km/h 53 % 0.0 mm
17:18 19.9 °C 10.1 °C 1017.8 hPa SSW 3.7 km/h 3.7 km/h 53 % 0.0 mm
17:23 20.0 °C 10.1 °C 1017.8 hPa SW 9.3 km/h 9.3 km/h 53 % 0.0 mm
17:28 20.1 °C 10.2 °C 1017.8 hPa SSW 5.6 km/h 5.6 km/h 53 % 0.0 mm
17:33 20.3 °C 10.4 °C 1017.8 hPa SW 9.3 km/h 9.3 km/h 53 % 0.0 mm
17:38 20.2 °C 10.3 °C 1017.8 hPa South 5.6 km/h 5.6 km/h 53 % 0.0 mm
17:43 20.7 °C 10.8 °C 1017.8 hPa SW 7.4 km/h 7.4 km/h 53 % 0.0 mm
17:48 20.2 °C 10.0 °C 1017.8 hPa SW 9.3 km/h 9.3 km/h 52 % 0.0 mm
17:53 20.5 °C 10.6 °C 1017.8 hPa WSW 9.3 km/h 9.3 km/h 53 % 0.0 mm
18:08 20.0 °C 10.1 °C 1017.8 hPa WSW 13.0 km/h 13.0 km/h 53 % 0.0 mm
18:13 19.8 °C 9.9 °C 1017.8 hPa WSW 9.3 km/h 9.3 km/h 53 % 0.0 mm
18:18 19.9 °C 9.7 °C 1017.8 hPa SW 14.8 km/h 14.8 km/h 52 % 0.0 mm
18:23 19.9 °C 10.1 °C 1017.8 hPa WSW 9.3 km/h 9.3 km/h 53 % 0.0 mm
18:28 20.2 °C 10.0 °C 1017.8 hPa West 11.1 km/h 11.1 km/h 52 % 0.0 mm
18:33 20.1 °C 9.9 °C 1017.8 hPa SSW 9.3 km/h 9.3 km/h 52 % 0.0 mm
18:38 20.4 °C 10.2 °C 1017.8 hPa SW 7.4 km/h 7.4 km/h 52 % 0.0 mm
18:43 20.2 °C 10.0 °C 1017.8 hPa SSW 16.7 km/h 16.7 km/h 52 % 0.0 mm
18:48 20.2 °C 10.0 °C 1017.8 hPa West 11.1 km/h 11.1 km/h 52 % 0.0 mm
18:53 20.0 °C 9.8 °C 1017.8 hPa WSW 9.3 km/h 9.3 km/h 52 % 0.0 mm
18:58 20.0 °C 9.8 °C 1017.8 hPa WSW 7.6 km/h 7.6 km/h 52 % 0.0 mm
19:03 19.6 °C 9.4 °C 1017.8 hPa West 9.3 km/h 9.3 km/h 52 % 0.0 mm
19:08 19.4 °C 9.6 °C 1017.8 hPa SW 9.3 km/h 9.3 km/h 53 % 0.0 mm
19:13 19.1 °C 9.3 °C 1017.8 hPa West 9.3 km/h 9.3 km/h 53 % 0.0 mm
19:18 18.9 °C 9.4 °C 1017.8 hPa SW 9.3 km/h 9.3 km/h 54 % 0.0 mm
19:23 18.8 °C 9.3 °C 1017.8 hPa WSW 9.5 km/h 9.5 km/h 54 % 0.0 mm
19:28 18.7 °C 9.2 °C 1017.8 hPa SW 15.1 km/h 15.1 km/h 54 % 0.0 mm
19:38 18.4 °C 9.2 °C 1017.8 hPa WSW 13.0 km/h 13.0 km/h 55 % 0.0 mm
19:43 18.2 °C 9.3 °C 1017.8 hPa WSW 13.0 km/h 13.0 km/h 56 % 0.0 mm
19:45 13.8 °C 9.4 °C 1018.8 hPa Calm     75 % 0.0 mm
19:48 18.1 °C 9.2 °C 1017.8 hPa WSW 13.0 km/h 13.0 km/h 56 % 0.0 mm
19:53 17.8 °C 9.4 °C 1017.8 hPa SW 7.4 km/h 7.4 km/h 58 % 0.0 mm
19:55 13.6 °C 9.2 °C 1018.8 hPa Calm     75 % 0.0 mm
19:58 17.8 °C 9.7 °C 1017.8 hPa SSW 7.4 km/h 7.4 km/h 59 % 0.0 mm
20:03 17.8 °C 9.7 °C 1017.8 hPa SSW 1.9 km/h 5.8 km/h 59 % 0.0 mm
20:05 13.5 °C 9.3 °C 1018.8 hPa Calm     76 % 0.0 mm
20:08 17.5 °C 9.7 °C 1017.8 hPa SSW 1.9 km/h 5.8 km/h 60 % 0.0 mm
20:13 17.3 °C 9.4 °C 1017.8 hPa WSW 7.4 km/h 7.4 km/h 60 % 0.0 mm
20:15 13.4 °C 9.3 °C 1018.8 hPa Calm   1.6 km/h 76 % 0.0 mm
20:23 17.0 °C 9.4 °C 1017.8 hPa WSW 7.4 km/h 7.4 km/h 61 % 0.0 mm
20:25 13.4 °C 9.4 °C 1018.8 hPa Calm   1.6 km/h 77 % 0.0 mm
20:33 16.7 °C 9.6 °C 1017.8 hPa WSW 7.4 km/h 7.4 km/h 63 % 0.0 mm
20:35 13.4 °C 9.4 °C 1018.8 hPa NE 1.6 km/h 1.6 km/h 77 % 0.0 mm
20:38 16.6 °C 9.8 °C 1016.8 hPa WSW 7.9 km/h 7.9 km/h 64 % 0.0 mm
20:43 16.5 °C 9.7 °C 1016.8 hPa WSW 7.9 km/h 7.9 km/h 64 % 0.0 mm
20:45 13.4 °C 9.4 °C 1018.8 hPa NE 1.6 km/h 3.2 km/h 77 % 0.0 mm
20:48 16.4 °C 9.6 °C 1016.8 hPa WSW 7.9 km/h 7.9 km/h 64 % 0.0 mm
20:53 16.3 °C 9.7 °C 1017.8 hPa WSW 7.4 km/h 7.4 km/h 65 % 0.0 mm
20:55 13.3 °C 9.2 °C 1018.8 hPa ENE 1.6 km/h 3.2 km/h 76 % 0.0 mm
20:58 16.2 °C 9.6 °C 1017.8 hPa WSW 7.4 km/h 7.4 km/h 65 % 0.0 mm
21:03 16.1 °C 9.5 °C 1017.8 hPa WSW 7.4 km/h 7.4 km/h 65 % 0.0 mm
21:08 16.0 °C 9.7 °C 1017.8 hPa WSW 7.4 km/h 7.4 km/h 66 % 0.0 mm
21:13 15.9 °C 9.6 °C 1017.8 hPa WSW 7.4 km/h 7.4 km/h 66 % 0.0 mm
21:15 13.2 °C 9.3 °C 1017.8 hPa Calm   1.6 km/h 77 % 0.0 mm
21:18 15.8 °C 9.7 °C 1017.8 hPa WSW 7.4 km/h 7.4 km/h 67 % 0.0 mm
21:23 15.7 °C 9.6 °C 1017.8 hPa South 7.4 km/h 7.4 km/h 67 % 0.0 mm
21:25 12.9 °C 8.8 °C 1017.8 hPa SE 1.6 km/h 3.2 km/h 76 % 0.0 mm
21:28 15.7 °C 9.8 °C 1017.8 hPa SW 7.4 km/h 7.4 km/h 68 % 0.0 mm
21:33 15.6 °C 9.7 °C 1017.8 hPa WSW 5.6 km/h 5.6 km/h 68 % 0.0 mm
21:35 12.7 °C 8.8 °C 1017.8 hPa Calm   3.2 km/h 77 % 0.0 mm
21:38 15.5 °C 9.8 °C 1017.8 hPa SSW 4.7 km/h 4.7 km/h 69 % 0.0 mm
21:43 15.5 °C 9.8 °C 1017.8 hPa SW 5.3 km/h 5.3 km/h 69 % 0.0 mm
21:48 15.4 °C 9.7 °C 1017.8 hPa SW 5.6 km/h   69 % 0.0 mm
21:53 15.3 °C 9.7 °C 1017.8 hPa SW 3.7 km/h   69 % 0.0 mm
21:55 12.5 °C 8.6 °C 1017.8 hPa SW 1.6 km/h 3.2 km/h 77 % 0.0 mm
21:58 15.3 °C 9.8 °C 1017.8 hPa South 3.7 km/h 3.7 km/h 70 % 0.0 mm
22:03 15.2 °C 9.8 °C 1017.8 hPa ESE 2.3 km/h 2.3 km/h 70 % 0.0 mm
22:05 12.4 °C 8.8 °C 1017.8 hPa Calm   3.2 km/h 79 % 0.0 mm
22:08 15.2 °C 9.8 °C 1017.8 hPa WNW 1.9 km/h   70 % 0.0 mm
22:13 15.1 °C 9.7 °C 1017.8 hPa Calm     70 % 0.0 mm
22:15 12.4 °C 8.8 °C 1016.8 hPa WSW 1.6 km/h 3.2 km/h 79 % 0.0 mm
22:19 15.0 °C 9.6 °C 1017.8 hPa SW 3.7 km/h   70 % 0.0 mm
22:24 14.9 °C 9.5 °C 1018.8 hPa WSW 1.4 km/h 1.4 km/h 70 % 0.0 mm
22:34 14.8 °C 9.4 °C 1018.8 hPa SW 3.7 km/h 3.7 km/h 70 % 0.0 mm
22:35 12.3 °C 8.8 °C 1017.8 hPa Calm   3.2 km/h 79 % 0.0 mm
22:39 14.7 °C 9.3 °C 1018.8 hPa SW 3.7 km/h 3.7 km/h 70 % 0.0 mm
22:44 14.7 °C 9.3 °C 1018.8 hPa WSW 3.9 km/h 3.9 km/h 70 % 0.0 mm
22:45 12.3 °C 8.8 °C 1017.8 hPa WSW 1.6 km/h 3.2 km/h 79 % 0.0 mm
22:49 14.7 °C 9.5 °C 1018.8 hPa WSW 3.7 km/h 3.7 km/h 71 % 0.0 mm
22:54 14.7 °C 9.5 °C 1018.8 hPa WSW 2.6 km/h 2.6 km/h 71 % 0.0 mm
22:55 12.3 °C 8.9 °C 1017.8 hPa SW 1.6 km/h 3.2 km/h 80 % 0.0 mm
22:59 14.7 °C 9.7 °C 1018.8 hPa WSW 1.9 km/h   72 % 0.0 mm
23:04 14.6 °C 9.6 °C 1018.8 hPa Calm     72 % 0.0 mm
23:05 11.9 °C 8.6 °C 1017.8 hPa Calm   3.2 km/h 80 % 0.0 mm
23:09 14.5 °C 9.5 °C 1018.8 hPa Calm     72 % 0.0 mm
23:14 14.5 °C 9.5 °C 1018.8 hPa WSW 2.3 km/h 2.3 km/h 72 % 0.0 mm
23:15 12.0 °C 8.7 °C 1017.8 hPa Calm     80 % 0.0 mm
23:19 14.4 °C 9.4 °C 1018.8 hPa Calm     72 % 0.0 mm
23:24 14.3 °C 9.5 °C 1018.8 hPa Calm     73 % 0.0 mm
23:25 11.9 °C 8.4 °C 1016.8 hPa ENE 1.6 km/h 1.6 km/h 79 % 0.0 mm
23:29 14.3 °C 9.5 °C 1018.8 hPa Calm     73 % 0.0 mm
23:34 14.2 °C 9.4 °C 1018.8 hPa Calm     73 % 0.0 mm
23:35 11.8 °C 8.4 °C 1016.8 hPa Calm     80 % 0.0 mm
23:44 14.1 °C 9.6 °C 1018.8 hPa Calm     74 % 0.0 mm
23:45 11.7 °C 8.6 °C 1017.8 hPa Calm   1.6 km/h 81 % 0.0 mm
23:49 14.1 °C 9.6 °C 1018.8 hPa Calm     74 % 0.0 mm
23:54 14.0 °C 9.4 °C 1018.8 hPa Calm     74 % 0.0 mm
23:55 11.5 °C 8.0 °C 1016.8 hPa WSW 1.6 km/h 3.2 km/h 79 % 0.0 mm
23:59 14.0 °C 9.4 °C 1018.8 hPa Calm     74 % 0.0 mm
Meteo Sesrovires
Elogis d' Weather Underground - 3.5 mb

Guio original per  Jim McMurry - jmcmurry@mwt.net Adaptat per a la plantilla per  Wim van der Kuil - Leuven-Template.eu

Trobareu la nostra informacio del temps tambe a:

Weather Underground

AWEKAS